sensor_id;sensor_type;location;lat;lon;timestamp;P1;durP1;ratioP1;P2;durP2;ratioP2
351;SDS011;164;50.784;6.496;2023-05-07T00:02:10;5.68;;;3.55;;
351;SDS011;164;50.784;6.496;2023-05-07T00:04:37;4.38;;;3.25;;
351;SDS011;164;50.784;6.496;2023-05-07T00:07:04;3.30;;;3.10;;
351;SDS011;164;50.784;6.496;2023-05-07T00:09:33;3.30;;;3.10;;
351;SDS011;164;50.784;6.496;2023-05-07T00:12:00;2.90;;;2.70;;
351;SDS011;164;50.784;6.496;2023-05-07T00:14:27;2.92;;;2.70;;
351;SDS011;164;50.784;6.496;2023-05-07T00:16:55;3.55;;;3.00;;
351;SDS011;164;50.784;6.496;2023-05-07T00:19:22;4.85;;;3.00;;
351;SDS011;164;50.784;6.496;2023-05-07T00:21:49;2.80;;;2.60;;
351;SDS011;164;50.784;6.496;2023-05-07T00:24:18;2.72;;;2.53;;
351;SDS011;164;50.784;6.496;2023-05-07T00:26:47;2.72;;;2.60;;
351;SDS011;164;50.784;6.496;2023-05-07T00:29:14;2.97;;;2.80;;
351;SDS011;164;50.784;6.496;2023-05-07T00:31:41;4.47;;;2.70;;
351;SDS011;164;50.784;6.496;2023-05-07T00:34:09;2.92;;;2.40;;
351;SDS011;164;50.784;6.496;2023-05-07T00:36:36;3.10;;;2.90;;
351;SDS011;164;50.784;6.496;2023-05-07T00:39:03;2.67;;;2.47;;
351;SDS011;164;50.784;6.496;2023-05-07T00:41:31;3.95;;;2.53;;
351;SDS011;164;50.784;6.496;2023-05-07T00:44:00;2.65;;;2.45;;
351;SDS011;164;50.784;6.496;2023-05-07T00:46:27;2.78;;;2.60;;
351;SDS011;164;50.784;6.496;2023-05-07T00:48:55;6.13;;;2.85;;
351;SDS011;164;50.784;6.496;2023-05-07T00:51:22;2.03;;;1.90;;
351;SDS011;164;50.784;6.496;2023-05-07T00:53:52;2.55;;;2.40;;
351;SDS011;164;50.784;6.496;2023-05-07T00:56:19;3.47;;;2.90;;
351;SDS011;164;50.784;6.496;2023-05-07T00:58:47;2.40;;;2.20;;
351;SDS011;164;50.784;6.496;2023-05-07T01:01:15;4.65;;;3.20;;
351;SDS011;164;50.784;6.496;2023-05-07T01:03:43;2.60;;;2.20;;
351;SDS011;164;50.784;6.496;2023-05-07T01:06:10;5.07;;;2.03;;
351;SDS011;164;50.784;6.496;2023-05-07T01:08:38;2.47;;;2.30;;
351;SDS011;164;50.784;6.496;2023-05-07T01:11:06;2.60;;;2.40;;
351;SDS011;164;50.784;6.496;2023-05-07T01:13:34;3.53;;;2.42;;
351;SDS011;164;50.784;6.496;2023-05-07T01:16:02;2.63;;;2.38;;
351;SDS011;164;50.784;6.496;2023-05-07T01:18:30;4.03;;;2.40;;
351;SDS011;164;50.784;6.496;2023-05-07T01:20:58;3.00;;;2.40;;
351;SDS011;164;50.784;6.496;2023-05-07T01:23:27;3.33;;;2.40;;
351;SDS011;164;50.784;6.496;2023-05-07T01:25:54;2.80;;;2.60;;
351;SDS011;164;50.784;6.496;2023-05-07T01:28:22;4.70;;;2.70;;
351;SDS011;164;50.784;6.496;2023-05-07T01:30:53;2.67;;;2.47;;
351;SDS011;164;50.784;6.496;2023-05-07T01:33:21;2.90;;;2.22;;
351;SDS011;164;50.784;6.496;2023-05-07T01:35:50;1.98;;;1.83;;
351;SDS011;164;50.784;6.496;2023-05-07T01:38:18;2.50;;;2.40;;
351;SDS011;164;50.784;6.496;2023-05-07T01:40:47;2.20;;;2.00;;
351;SDS011;164;50.784;6.496;2023-05-07T01:43:14;2.92;;;2.70;;
351;SDS011;164;50.784;6.496;2023-05-07T01:45:41;3.08;;;2.88;;
351;SDS011;164;50.784;6.496;2023-05-07T01:48:10;3.42;;;3.22;;
351;SDS011;164;50.784;6.496;2023-05-07T01:50:38;3.45;;;2.50;;
351;SDS011;164;50.784;6.496;2023-05-07T01:53:06;3.50;;;2.75;;
351;SDS011;164;50.784;6.496;2023-05-07T01:55:33;3.28;;;3.10;;
351;SDS011;164;50.784;6.496;2023-05-07T01:58:03;4.03;;;2.60;;
351;SDS011;164;50.784;6.496;2023-05-07T02:00:31;3.35;;;2.70;;
351;SDS011;164;50.784;6.496;2023-05-07T02:02:58;2.95;;;2.75;;
351;SDS011;164;50.784;6.496;2023-05-07T02:05:25;2.95;;;2.40;;
351;SDS011;164;50.784;6.496;2023-05-07T02:07:53;3.17;;;2.97;;
351;SDS011;164;50.784;6.496;2023-05-07T02:10:20;2.78;;;2.58;;
351;SDS011;164;50.784;6.496;2023-05-07T02:12:47;2.88;;;2.67;;
351;SDS011;164;50.784;6.496;2023-05-07T02:15:16;3.58;;;2.60;;
351;SDS011;164;50.784;6.496;2023-05-07T02:17:57;3.53;;;3.33;;
351;SDS011;164;50.784;6.496;2023-05-07T02:20:25;3.63;;;3.42;;
351;SDS011;164;50.784;6.496;2023-05-07T02:22:52;3.22;;;2.80;;
351;SDS011;164;50.784;6.496;2023-05-07T02:25:20;3.05;;;2.85;;
351;SDS011;164;50.784;6.496;2023-05-07T02:27:47;3.38;;;3.17;;
351;SDS011;164;50.784;6.496;2023-05-07T02:30:14;3.90;;;3.03;;
351;SDS011;164;50.784;6.496;2023-05-07T02:32:43;3.40;;;3.20;;
351;SDS011;164;50.784;6.496;2023-05-07T02:35:10;4.22;;;3.10;;
351;SDS011;164;50.784;6.496;2023-05-07T02:37:37;3.08;;;2.88;;
351;SDS011;164;50.784;6.496;2023-05-07T02:40:05;2.40;;;2.20;;
351;SDS011;164;50.784;6.496;2023-05-07T02:42:32;3.63;;;3.42;;
351;SDS011;164;50.784;6.496;2023-05-07T02:45:00;2.65;;;2.45;;
351;SDS011;164;50.784;6.496;2023-05-07T02:47:27;3.53;;;2.95;;
351;SDS011;164;50.784;6.496;2023-05-07T02:49:56;3.28;;;2.67;;
351;SDS011;164;50.784;6.496;2023-05-07T02:52:23;3.45;;;3.15;;
351;SDS011;164;50.784;6.496;2023-05-07T02:54:50;3.30;;;2.95;;
351;SDS011;164;50.784;6.496;2023-05-07T02:57:17;7.55;;;3.47;;
351;SDS011;164;50.784;6.496;2023-05-07T02:59:45;3.55;;;2.72;;
351;SDS011;164;50.784;6.496;2023-05-07T03:02:12;3.08;;;2.90;;
351;SDS011;164;50.784;6.496;2023-05-07T03:04:39;3.70;;;2.85;;
351;SDS011;164;50.784;6.496;2023-05-07T03:07:08;2.55;;;2.35;;
351;SDS011;164;50.784;6.496;2023-05-07T03:09:35;3.08;;;2.90;;
351;SDS011;164;50.784;6.496;2023-05-07T03:12:03;3.70;;;3.50;;
351;SDS011;164;50.784;6.496;2023-05-07T03:14:30;5.60;;;3.20;;
351;SDS011;164;50.784;6.496;2023-05-07T03:16:58;3.05;;;2.85;;
351;SDS011;164;50.784;6.496;2023-05-07T03:19:25;3.42;;;3.00;;
351;SDS011;164;50.784;6.496;2023-05-07T03:21:52;4.10;;;3.10;;
351;SDS011;164;50.784;6.496;2023-05-07T03:24:21;3.47;;;3.10;;
351;SDS011;164;50.784;6.496;2023-05-07T03:26:48;3.50;;;2.90;;
351;SDS011;164;50.784;6.496;2023-05-07T03:29:15;3.28;;;2.95;;
351;SDS011;164;50.784;6.496;2023-05-07T03:31:43;2.70;;;2.50;;
351;SDS011;164;50.784;6.496;2023-05-07T03:34:10;4.05;;;2.90;;
351;SDS011;164;50.784;6.496;2023-05-07T03:36:37;3.13;;;2.92;;
351;SDS011;164;50.784;6.496;2023-05-07T03:39:05;3.20;;;3.00;;
351;SDS011;164;50.784;6.496;2023-05-07T03:41:33;3.92;;;3.72;;
351;SDS011;164;50.784;6.496;2023-05-07T03:44:00;3.25;;;3.05;;
351;SDS011;164;50.784;6.496;2023-05-07T03:46:28;2.95;;;2.75;;
351;SDS011;164;50.784;6.496;2023-05-07T03:48:55;3.05;;;2.78;;
351;SDS011;164;50.784;6.496;2023-05-07T03:51:22;4.10;;;3.45;;
351;SDS011;164;50.784;6.496;2023-05-07T03:53:50;2.83;;;2.63;;
351;SDS011;164;50.784;6.496;2023-05-07T03:56:18;2.70;;;2.50;;
351;SDS011;164;50.784;6.496;2023-05-07T03:58:47;3.58;;;3.40;;
351;SDS011;164;50.784;6.496;2023-05-07T04:01:14;3.25;;;3.05;;
351;SDS011;164;50.784;6.496;2023-05-07T04:03:41;3.78;;;3.00;;
351;SDS011;164;50.784;6.496;2023-05-07T04:06:09;2.80;;;2.55;;
351;SDS011;164;50.784;6.496;2023-05-07T04:08:37;3.38;;;2.70;;
351;SDS011;164;50.784;6.496;2023-05-07T04:11:04;3.80;;;2.65;;
351;SDS011;164;50.784;6.496;2023-05-07T04:13:32;2.72;;;2.53;;
351;SDS011;164;50.784;6.496;2023-05-07T04:16:02;3.00;;;2.80;;
351;SDS011;164;50.784;6.496;2023-05-07T04:18:29;2.38;;;2.17;;
351;SDS011;164;50.784;6.496;2023-05-07T04:20:57;2.63;;;2.30;;
351;SDS011;164;50.784;6.496;2023-05-07T04:23:24;3.80;;;2.90;;
351;SDS011;164;50.784;6.496;2023-05-07T04:25:51;3.20;;;3.00;;
351;SDS011;164;50.784;6.496;2023-05-07T04:28:20;2.83;;;2.55;;
351;SDS011;164;50.784;6.496;2023-05-07T04:30:47;4.72;;;3.03;;
351;SDS011;164;50.784;6.496;2023-05-07T04:33:16;3.33;;;3.13;;
351;SDS011;164;50.784;6.496;2023-05-07T04:35:43;3.45;;;2.80;;
351;SDS011;164;50.784;6.496;2023-05-07T04:38:11;3.50;;;3.33;;
351;SDS011;164;50.784;6.496;2023-05-07T04:40:38;3.25;;;3.05;;
351;SDS011;164;50.784;6.496;2023-05-07T04:43:06;3.45;;;3.30;;
351;SDS011;164;50.784;6.496;2023-05-07T04:45:34;4.25;;;3.78;;
351;SDS011;164;50.784;6.496;2023-05-07T04:48:01;4.50;;;3.65;;
351;SDS011;164;50.784;6.496;2023-05-07T04:50:30;6.05;;;4.53;;
351;SDS011;164;50.784;6.496;2023-05-07T04:52:57;3.80;;;3.53;;
351;SDS011;164;50.784;6.496;2023-05-07T04:55:24;4.03;;;3.70;;
351;SDS011;164;50.784;6.496;2023-05-07T04:57:51;3.97;;;3.80;;
351;SDS011;164;50.784;6.496;2023-05-07T05:00:19;5.00;;;4.70;;
351;SDS011;164;50.784;6.496;2023-05-07T05:02:46;4.07;;;3.88;;
351;SDS011;164;50.784;6.496;2023-05-07T05:05:13;3.70;;;3.50;;
351;SDS011;164;50.784;6.496;2023-05-07T05:07:42;6.43;;;4.45;;
351;SDS011;164;50.784;6.496;2023-05-07T05:10:09;6.90;;;3.55;;
351;SDS011;164;50.784;6.496;2023-05-07T05:12:36;3.90;;;3.70;;
351;SDS011;164;50.784;6.496;2023-05-07T05:15:04;3.25;;;3.05;;
351;SDS011;164;50.784;6.496;2023-05-07T05:17:31;3.90;;;3.70;;
351;SDS011;164;50.784;6.496;2023-05-07T05:20:01;4.07;;;3.67;;
351;SDS011;164;50.784;6.496;2023-05-07T05:22:28;4.03;;;3.83;;
351;SDS011;164;50.784;6.496;2023-05-07T05:24:57;4.00;;;3.80;;
351;SDS011;164;50.784;6.496;2023-05-07T05:27:25;4.20;;;3.35;;
351;SDS011;164;50.784;6.496;2023-05-07T05:29:53;3.35;;;3.20;;
351;SDS011;164;50.784;6.496;2023-05-07T05:32:20;3.55;;;3.35;;
351;SDS011;164;50.784;6.496;2023-05-07T05:34:47;3.60;;;3.30;;
351;SDS011;164;50.784;6.496;2023-05-07T05:37:14;3.50;;;3.30;;
351;SDS011;164;50.784;6.496;2023-05-07T05:39:42;3.42;;;3.22;;
351;SDS011;164;50.784;6.496;2023-05-07T05:42:11;3.85;;;3.65;;
351;SDS011;164;50.784;6.496;2023-05-07T05:44:38;3.47;;;3.33;;
351;SDS011;164;50.784;6.496;2023-05-07T05:47:05;3.60;;;3.40;;
351;SDS011;164;50.784;6.496;2023-05-07T05:49:32;3.70;;;3.50;;
351;SDS011;164;50.784;6.496;2023-05-07T05:52:00;4.28;;;4.00;;
351;SDS011;164;50.784;6.496;2023-05-07T05:54:27;4.00;;;3.25;;
351;SDS011;164;50.784;6.496;2023-05-07T05:56:54;3.13;;;2.92;;
351;SDS011;164;50.784;6.496;2023-05-07T05:59:23;3.25;;;3.05;;
351;SDS011;164;50.784;6.496;2023-05-07T06:01:50;3.50;;;3.30;;
351;SDS011;164;50.784;6.496;2023-05-07T06:04:18;3.38;;;3.17;;
351;SDS011;164;50.784;6.496;2023-05-07T06:06:45;3.00;;;2.80;;
351;SDS011;164;50.784;6.496;2023-05-07T06:09:12;2.85;;;2.65;;
351;SDS011;164;50.784;6.496;2023-05-07T06:11:39;3.20;;;3.00;;
351;SDS011;164;50.784;6.496;2023-05-07T06:14:07;3.35;;;3.17;;
351;SDS011;164;50.784;6.496;2023-05-07T06:16:36;4.00;;;3.78;;
351;SDS011;164;50.784;6.496;2023-05-07T06:19:03;4.03;;;3.88;;
351;SDS011;164;50.784;6.496;2023-05-07T06:21:31;3.03;;;2.83;;
351;SDS011;164;50.784;6.496;2023-05-07T06:23:58;2.70;;;2.50;;
351;SDS011;164;50.784;6.496;2023-05-07T06:26:25;3.42;;;3.22;;
351;SDS011;164;50.784;6.496;2023-05-07T06:28:52;3.95;;;3.40;;
351;SDS011;164;50.784;6.496;2023-05-07T06:31:20;3.60;;;3.40;;
351;SDS011;164;50.784;6.496;2023-05-07T06:33:48;3.00;;;2.85;;
351;SDS011;164;50.784;6.496;2023-05-07T06:36:16;4.60;;;3.17;;
351;SDS011;164;50.784;6.496;2023-05-07T06:38:43;3.30;;;3.10;;
351;SDS011;164;50.784;6.496;2023-05-07T06:41:10;3.95;;;2.63;;
351;SDS011;164;50.784;6.496;2023-05-07T06:43:37;3.42;;;3.22;;
351;SDS011;164;50.784;6.496;2023-05-07T06:46:05;3.20;;;3.00;;
351;SDS011;164;50.784;6.496;2023-05-07T06:48:32;3.03;;;2.83;;
351;SDS011;164;50.784;6.496;2023-05-07T06:51:01;6.25;;;4.75;;
351;SDS011;164;50.784;6.496;2023-05-07T06:53:28;3.50;;;3.30;;
351;SDS011;164;50.784;6.496;2023-05-07T06:55:55;3.00;;;2.75;;
351;SDS011;164;50.784;6.496;2023-05-07T06:58:23;3.25;;;3.05;;
351;SDS011;164;50.784;6.496;2023-05-07T07:00:57;3.30;;;3.10;;
351;SDS011;164;50.784;6.496;2023-05-07T07:03:24;5.43;;;5.13;;
351;SDS011;164;50.784;6.496;2023-05-07T07:05:52;4.28;;;3.78;;
351;SDS011;164;50.784;6.496;2023-05-07T07:08:21;2.80;;;2.20;;
351;SDS011;164;50.784;6.496;2023-05-07T07:10:49;2.60;;;2.40;;
351;SDS011;164;50.784;6.496;2023-05-07T07:13:16;3.13;;;2.90;;
351;SDS011;164;50.784;6.496;2023-05-07T07:15:44;3.90;;;2.00;;
351;SDS011;164;50.784;6.496;2023-05-07T07:18:11;2.30;;;2.10;;
351;SDS011;164;50.784;6.496;2023-05-07T07:20:39;2.55;;;2.22;;
351;SDS011;164;50.784;6.496;2023-05-07T07:23:06;3.40;;;2.53;;
351;SDS011;164;50.784;6.496;2023-05-07T07:25:34;2.00;;;1.90;;
351;SDS011;164;50.784;6.496;2023-05-07T07:28:03;2.35;;;2.15;;
351;SDS011;164;50.784;6.496;2023-05-07T07:30:30;1.95;;;1.73;;
351;SDS011;164;50.784;6.496;2023-05-07T07:32:57;2.95;;;2.60;;
351;SDS011;164;50.784;6.496;2023-05-07T07:35:27;2.40;;;2.20;;
351;SDS011;164;50.784;6.496;2023-05-07T07:37:54;3.58;;;2.40;;
351;SDS011;164;50.784;6.496;2023-05-07T07:40:21;2.55;;;1.70;;
351;SDS011;164;50.784;6.496;2023-05-07T07:42:50;1.88;;;1.77;;
351;SDS011;164;50.784;6.496;2023-05-07T07:45:17;1.90;;;1.80;;
351;SDS011;164;50.784;6.496;2023-05-07T07:47:44;1.73;;;1.63;;
351;SDS011;164;50.784;6.496;2023-05-07T07:50:12;1.80;;;1.42;;
351;SDS011;164;50.784;6.496;2023-05-07T07:52:39;1.50;;;1.40;;
351;SDS011;164;50.784;6.496;2023-05-07T07:55:07;2.45;;;1.92;;
351;SDS011;164;50.784;6.496;2023-05-07T07:57:34;4.15;;;1.30;;
351;SDS011;164;50.784;6.496;2023-05-07T08:00:04;2.08;;;1.95;;
351;SDS011;164;50.784;6.496;2023-05-07T08:02:32;1.95;;;1.45;;
351;SDS011;164;50.784;6.496;2023-05-07T08:04:59;2.63;;;1.70;;
351;SDS011;164;50.784;6.496;2023-05-07T08:07:26;2.03;;;1.92;;
351;SDS011;164;50.784;6.496;2023-05-07T08:09:55;1.65;;;1.65;;
351;SDS011;164;50.784;6.496;2023-05-07T08:12:22;1.90;;;1.65;;
351;SDS011;164;50.784;6.496;2023-05-07T08:14:49;2.17;;;1.67;;
351;SDS011;164;50.784;6.496;2023-05-07T08:17:18;2.03;;;1.55;;
351;SDS011;164;50.784;6.496;2023-05-07T08:19:47;2.03;;;1.48;;
351;SDS011;164;50.784;6.496;2023-05-07T08:22:14;1.80;;;1.30;;
351;SDS011;164;50.784;6.496;2023-05-07T08:24:43;2.20;;;1.92;;
351;SDS011;164;50.784;6.496;2023-05-07T08:27:11;2.53;;;2.30;;
351;SDS011;164;50.784;6.496;2023-05-07T08:29:38;3.42;;;2.30;;
351;SDS011;164;50.784;6.496;2023-05-07T08:32:05;3.22;;;3.03;;
351;SDS011;164;50.784;6.496;2023-05-07T08:34:34;2.50;;;2.30;;
351;SDS011;164;50.784;6.496;2023-05-07T08:37:02;2.17;;;2.03;;
351;SDS011;164;50.784;6.496;2023-05-07T08:39:29;4.82;;;2.85;;
351;SDS011;164;50.784;6.496;2023-05-07T08:41:56;2.53;;;2.22;;
351;SDS011;164;50.784;6.496;2023-05-07T08:44:27;1.85;;;1.77;;
351;SDS011;164;50.784;6.496;2023-05-07T08:46:56;2.95;;;2.78;;
351;SDS011;164;50.784;6.496;2023-05-07T08:49:23;2.33;;;2.10;;
351;SDS011;164;50.784;6.496;2023-05-07T08:51:52;2.75;;;2.55;;
351;SDS011;164;50.784;6.496;2023-05-07T08:54:20;2.60;;;2.40;;
351;SDS011;164;50.784;6.496;2023-05-07T08:56:48;1.90;;;1.80;;
351;SDS011;164;50.784;6.496;2023-05-07T08:59:15;3.22;;;2.83;;
351;SDS011;164;50.784;6.496;2023-05-07T09:01:45;2.72;;;2.53;;
351;SDS011;164;50.784;6.496;2023-05-07T09:04:12;2.17;;;2.00;;
351;SDS011;164;50.784;6.496;2023-05-07T09:06:39;3.33;;;2.65;;
351;SDS011;164;50.784;6.496;2023-05-07T09:09:08;2.38;;;2.17;;
351;SDS011;164;50.784;6.496;2023-05-07T09:11:35;3.30;;;3.10;;
351;SDS011;164;50.784;6.496;2023-05-07T09:14:03;2.90;;;2.70;;
351;SDS011;164;50.784;6.496;2023-05-07T09:16:30;2.70;;;2.50;;
351;SDS011;164;50.784;6.496;2023-05-07T09:18:58;3.85;;;2.60;;
351;SDS011;164;50.784;6.496;2023-05-07T09:21:26;3.92;;;2.50;;
351;SDS011;164;50.784;6.496;2023-05-07T09:23:54;2.40;;;2.20;;
351;SDS011;164;50.784;6.496;2023-05-07T09:26:23;4.25;;;2.15;;
351;SDS011;164;50.784;6.496;2023-05-07T09:28:51;2.25;;;2.05;;
351;SDS011;164;50.784;6.496;2023-05-07T09:31:18;2.75;;;2.60;;
351;SDS011;164;50.784;6.496;2023-05-07T09:33:45;4.30;;;2.20;;
351;SDS011;164;50.784;6.496;2023-05-07T09:36:13;3.22;;;3.05;;
351;SDS011;164;50.784;6.496;2023-05-07T09:38:43;2.00;;;1.92;;
351;SDS011;164;50.784;6.496;2023-05-07T09:41:12;3.67;;;2.13;;
351;SDS011;164;50.784;6.496;2023-05-07T09:43:41;2.20;;;2.05;;
351;SDS011;164;50.784;6.496;2023-05-07T09:46:09;2.08;;;1.85;;
351;SDS011;164;50.784;6.496;2023-05-07T09:48:38;6.00;;;2.13;;
351;SDS011;164;50.784;6.496;2023-05-07T09:51:08;4.10;;;2.85;;
351;SDS011;164;50.784;6.496;2023-05-07T09:53:36;2.53;;;1.80;;
351;SDS011;164;50.784;6.496;2023-05-07T09:56:03;2.47;;;2.28;;
351;SDS011;164;50.784;6.496;2023-05-07T09:58:31;1.92;;;1.77;;
351;SDS011;164;50.784;6.496;2023-05-07T10:01:02;2.78;;;1.80;;
351;SDS011;164;50.784;6.496;2023-05-07T10:03:29;2.88;;;2.03;;
351;SDS011;164;50.784;6.496;2023-05-07T10:05:58;2.22;;;1.45;;
351;SDS011;164;50.784;6.496;2023-05-07T10:08:25;2.78;;;2.00;;
351;SDS011;164;50.784;6.496;2023-05-07T10:10:53;2.28;;;2.08;;
351;SDS011;164;50.784;6.496;2023-05-07T10:13:21;2.97;;;2.22;;
351;SDS011;164;50.784;6.496;2023-05-07T10:15:48;3.05;;;2.13;;
351;SDS011;164;50.784;6.496;2023-05-07T10:18:17;2.97;;;1.80;;
351;SDS011;164;50.784;6.496;2023-05-07T10:20:47;3.00;;;2.08;;
351;SDS011;164;50.784;6.496;2023-05-07T10:23:15;2.40;;;2.20;;
351;SDS011;164;50.784;6.496;2023-05-07T10:25:45;1.95;;;1.85;;
351;SDS011;164;50.784;6.496;2023-05-07T10:28:12;2.65;;;2.30;;
351;SDS011;164;50.784;6.496;2023-05-07T10:30:43;2.50;;;2.30;;
351;SDS011;164;50.784;6.496;2023-05-07T10:33:15;2.85;;;2.10;;
351;SDS011;164;50.784;6.496;2023-05-07T10:35:45;2.35;;;2.20;;
351;SDS011;164;50.784;6.496;2023-05-07T10:38:13;2.58;;;1.98;;
351;SDS011;164;50.784;6.496;2023-05-07T10:40:40;2.35;;;2.15;;
351;SDS011;164;50.784;6.496;2023-05-07T10:43:08;3.00;;;1.77;;
351;SDS011;164;50.784;6.496;2023-05-07T10:45:35;2.67;;;2.47;;
351;SDS011;164;50.784;6.496;2023-05-07T10:48:06;2.20;;;2.00;;
351;SDS011;164;50.784;6.496;2023-05-07T10:50:37;3.20;;;2.17;;
351;SDS011;164;50.784;6.496;2023-05-07T10:58:42;3.15;;;2.42;;
351;SDS011;164;50.784;6.496;2023-05-07T11:01:09;5.75;;;2.90;;
351;SDS011;164;50.784;6.496;2023-05-07T11:04:12;4.55;;;2.72;;
351;SDS011;164;50.784;6.496;2023-05-07T11:06:27;2.60;;;2.45;;
351;SDS011;164;50.784;6.496;2023-05-07T11:08:58;3.00;;;2.60;;
351;SDS011;164;50.784;6.496;2023-05-07T11:14:12;2.22;;;2.03;;
351;SDS011;164;50.784;6.496;2023-05-07T11:16:40;1.80;;;1.70;;
351;SDS011;164;50.784;6.496;2023-05-07T11:19:08;2.88;;;2.67;;
351;SDS011;164;50.784;6.496;2023-05-07T11:21:36;4.07;;;2.38;;
351;SDS011;164;50.784;6.496;2023-05-07T11:24:03;3.05;;;2.55;;
351;SDS011;164;50.784;6.496;2023-05-07T11:26:40;2.70;;;2.50;;
351;SDS011;164;50.784;6.496;2023-05-07T11:29:10;2.28;;;2.08;;
351;SDS011;164;50.784;6.496;2023-05-07T11:31:39;3.85;;;2.80;;
351;SDS011;164;50.784;6.496;2023-05-07T11:34:06;2.72;;;2.53;;
351;SDS011;164;50.784;6.496;2023-05-07T11:36:33;2.55;;;2.35;;
351;SDS011;164;50.784;6.496;2023-05-07T11:39:01;2.83;;;2.70;;
351;SDS011;164;50.784;6.496;2023-05-07T11:41:34;2.65;;;2.45;;
351;SDS011;164;50.784;6.496;2023-05-07T11:44:03;4.55;;;4.25;;
351;SDS011;164;50.784;6.496;2023-05-07T11:46:30;3.13;;;2.78;;
351;SDS011;164;50.784;6.496;2023-05-07T11:48:58;2.70;;;2.50;;
351;SDS011;164;50.784;6.496;2023-05-07T11:51:28;4.30;;;3.30;;
351;SDS011;164;50.784;6.496;2023-05-07T11:53:55;3.08;;;2.90;;
351;SDS011;164;50.784;6.496;2023-05-07T11:56:22;3.55;;;3.30;;
351;SDS011;164;50.784;6.496;2023-05-07T11:58:49;4.30;;;4.00;;
351;SDS011;164;50.784;6.496;2023-05-07T12:01:17;4.50;;;4.22;;
351;SDS011;164;50.784;6.496;2023-05-07T12:03:45;6.40;;;5.35;;
351;SDS011;164;50.784;6.496;2023-05-07T12:06:14;6.85;;;4.45;;
351;SDS011;164;50.784;6.496;2023-05-07T12:08:42;6.07;;;4.72;;
351;SDS011;164;50.784;6.496;2023-05-07T12:11:12;5.80;;;5.50;;
351;SDS011;164;50.784;6.496;2023-05-07T12:13:41;7.20;;;5.30;;
351;SDS011;164;50.784;6.496;2023-05-07T12:16:09;4.80;;;4.50;;
351;SDS011;164;50.784;6.496;2023-05-07T12:18:36;5.55;;;5.05;;
351;SDS011;164;50.784;6.496;2023-05-07T12:21:04;5.35;;;5.05;;
351;SDS011;164;50.784;6.496;2023-05-07T12:23:34;4.90;;;4.60;;
351;SDS011;164;50.784;6.496;2023-05-07T12:26:01;5.78;;;5.40;;
351;SDS011;164;50.784;6.496;2023-05-07T12:28:29;5.45;;;5.15;;
351;SDS011;164;50.784;6.496;2023-05-07T12:30:57;5.75;;;5.45;;
351;SDS011;164;50.784;6.496;2023-05-07T12:33:25;6.35;;;5.35;;
351;SDS011;164;50.784;6.496;2023-05-07T12:35:54;7.15;;;5.40;;
351;SDS011;164;50.784;6.496;2023-05-07T12:38:21;4.80;;;4.50;;
351;SDS011;164;50.784;6.496;2023-05-07T12:40:53;4.00;;;3.80;;
351;SDS011;164;50.784;6.496;2023-05-07T12:43:21;7.18;;;4.47;;
351;SDS011;164;50.784;6.496;2023-05-07T12:45:49;4.30;;;4.00;;
351;SDS011;164;50.784;6.496;2023-05-07T12:48:17;5.85;;;5.55;;
351;SDS011;164;50.784;6.496;2023-05-07T12:50:52;9.55;;;5.93;;
351;SDS011;164;50.784;6.496;2023-05-07T12:53:20;4.55;;;4.25;;
351;SDS011;164;50.784;6.496;2023-05-07T12:55:48;6.93;;;4.70;;
351;SDS011;164;50.784;6.496;2023-05-07T12:58:17;3.90;;;3.70;;
351;SDS011;164;50.784;6.496;2023-05-07T13:00:45;5.35;;;5.05;;
351;SDS011;164;50.784;6.496;2023-05-07T13:03:20;6.03;;;5.72;;
351;SDS011;164;50.784;6.496;2023-05-07T13:05:48;8.13;;;7.72;;
351;SDS011;164;50.784;6.496;2023-05-07T13:08:25;6.75;;;6.35;;
351;SDS011;164;50.784;6.496;2023-05-07T13:10:52;5.70;;;5.40;;
351;SDS011;164;50.784;6.496;2023-05-07T13:13:23;5.55;;;5.25;;
351;SDS011;164;50.784;6.496;2023-05-07T13:15:50;10.23;;;5.75;;
351;SDS011;164;50.784;6.496;2023-05-07T13:18:17;7.15;;;6.47;;
351;SDS011;164;50.784;6.496;2023-05-07T13:20:45;5.50;;;5.20;;
351;SDS011;164;50.784;6.496;2023-05-07T13:23:12;5.75;;;5.45;;
351;SDS011;164;50.784;6.496;2023-05-07T13:25:40;5.45;;;5.15;;
351;SDS011;164;50.784;6.496;2023-05-07T13:28:07;5.75;;;4.80;;
351;SDS011;164;50.784;6.496;2023-05-07T13:30:36;5.03;;;4.72;;
351;SDS011;164;50.784;6.496;2023-05-07T13:33:03;4.95;;;4.65;;
351;SDS011;164;50.784;6.496;2023-05-07T13:35:30;4.72;;;4.43;;
351;SDS011;164;50.784;6.496;2023-05-07T13:37:57;5.05;;;4.68;;
351;SDS011;164;50.784;6.496;2023-05-07T13:40:25;4.95;;;4.65;;
351;SDS011;164;50.784;6.496;2023-05-07T13:42:52;4.57;;;4.28;;
351;SDS011;164;50.784;6.496;2023-05-07T13:45:20;4.07;;;3.85;;
351;SDS011;164;50.784;6.496;2023-05-07T13:47:52;5.80;;;4.10;;
351;SDS011;164;50.784;6.496;2023-05-07T13:50:19;4.07;;;3.75;;
351;SDS011;164;50.784;6.496;2023-05-07T13:52:46;3.90;;;3.70;;
351;SDS011;164;50.784;6.496;2023-05-07T13:55:15;4.18;;;3.95;;
351;SDS011;164;50.784;6.496;2023-05-07T13:57:43;3.63;;;3.42;;
351;SDS011;164;50.784;6.496;2023-05-07T14:00:11;5.05;;;3.95;;
351;SDS011;164;50.784;6.496;2023-05-07T14:02:39;3.75;;;3.55;;
351;SDS011;164;50.784;6.496;2023-05-07T14:05:08;4.38;;;4.10;;
351;SDS011;164;50.784;6.496;2023-05-07T14:07:35;5.63;;;3.60;;
351;SDS011;164;50.784;6.496;2023-05-07T14:10:02;4.18;;;3.92;;
351;SDS011;164;50.784;6.496;2023-05-07T14:12:31;5.13;;;4.82;;
351;SDS011;164;50.784;6.496;2023-05-07T14:14:58;3.30;;;3.10;;
351;SDS011;164;50.784;6.496;2023-05-07T14:17:26;4.50;;;4.25;;
351;SDS011;164;50.784;6.496;2023-05-07T14:19:53;3.13;;;2.92;;
351;SDS011;164;50.784;6.496;2023-05-07T14:22:22;3.33;;;3.13;;
351;SDS011;164;50.784;6.496;2023-05-07T14:24:50;4.30;;;3.00;;
351;SDS011;164;50.784;6.496;2023-05-07T14:27:17;2.90;;;2.70;;
351;SDS011;164;50.784;6.496;2023-05-07T14:29:45;4.63;;;3.10;;
351;SDS011;164;50.784;6.496;2023-05-07T14:32:16;2.70;;;2.25;;
351;SDS011;164;50.784;6.496;2023-05-07T14:34:43;2.92;;;2.72;;
351;SDS011;164;50.784;6.496;2023-05-07T14:37:11;3.17;;;2.58;;
351;SDS011;164;50.784;6.496;2023-05-07T14:39:40;2.45;;;2.25;;
351;SDS011;164;50.784;6.496;2023-05-07T14:42:07;2.40;;;1.90;;
351;SDS011;164;50.784;6.496;2023-05-07T14:44:34;3.30;;;2.60;;
351;SDS011;164;50.784;6.496;2023-05-07T14:47:02;2.42;;;2.22;;
351;SDS011;164;50.784;6.496;2023-05-07T14:49:29;2.85;;;2.65;;
351;SDS011;164;50.784;6.496;2023-05-07T14:51:57;2.35;;;2.00;;
351;SDS011;164;50.784;6.496;2023-05-07T14:54:25;3.53;;;2.03;;
351;SDS011;164;50.784;6.496;2023-05-07T14:56:54;2.45;;;1.90;;
351;SDS011;164;50.784;6.496;2023-05-07T14:59:22;3.53;;;1.90;;
351;SDS011;164;50.784;6.496;2023-05-07T15:01:50;2.30;;;2.10;;
351;SDS011;164;50.784;6.496;2023-05-07T15:04:17;3.00;;;2.80;;
351;SDS011;164;50.784;6.496;2023-05-07T15:06:45;2.92;;;2.72;;
351;SDS011;164;50.784;6.496;2023-05-07T15:09:12;3.00;;;2.85;;
351;SDS011;164;50.784;6.496;2023-05-07T15:11:40;5.80;;;3.25;;
351;SDS011;164;50.784;6.496;2023-05-07T15:14:08;2.95;;;2.72;;
351;SDS011;164;50.784;6.496;2023-05-07T15:16:36;3.85;;;3.03;;
351;SDS011;164;50.784;6.496;2023-05-07T15:19:04;2.95;;;2.75;;
351;SDS011;164;50.784;6.496;2023-05-07T15:21:31;6.25;;;3.15;;
351;SDS011;164;50.784;6.496;2023-05-07T15:23:59;3.20;;;2.85;;
351;SDS011;164;50.784;6.496;2023-05-07T15:26:27;2.85;;;2.65;;
351;SDS011;164;50.784;6.496;2023-05-07T15:28:55;2.25;;;2.10;;
351;SDS011;164;50.784;6.496;2023-05-07T15:31:24;2.28;;;2.08;;
351;SDS011;164;50.784;6.496;2023-05-07T15:33:51;2.53;;;2.20;;
351;SDS011;164;50.784;6.496;2023-05-07T15:36:19;2.40;;;2.20;;
351;SDS011;164;50.784;6.496;2023-05-07T15:38:46;2.90;;;2.70;;
351;SDS011;164;50.784;6.496;2023-05-07T15:41:13;2.60;;;2.40;;
351;SDS011;164;50.784;6.496;2023-05-07T15:43:43;2.42;;;2.22;;
351;SDS011;164;50.784;6.496;2023-05-07T15:46:11;2.50;;;1.80;;
351;SDS011;164;50.784;6.496;2023-05-07T15:48:40;2.03;;;1.40;;
351;SDS011;164;50.784;6.496;2023-05-07T15:51:07;2.03;;;1.77;;
351;SDS011;164;50.784;6.496;2023-05-07T15:53:35;1.60;;;1.50;;
351;SDS011;164;50.784;6.496;2023-05-07T15:56:02;1.60;;;1.50;;
351;SDS011;164;50.784;6.496;2023-05-07T15:58:30;2.10;;;1.90;;